sensor_id;sensor_type;location;lat;lon;timestamp;temperature;humidity
4904;DHT22;2467;48.142;11.616;2023-06-26T00:00:22;21.70;64.70
4904;DHT22;2467;48.142;11.616;2023-06-26T00:00:54;21.70;64.70
4904;DHT22;2467;48.142;11.616;2023-06-26T00:01:26;21.70;64.70
4904;DHT22;2467;48.142;11.616;2023-06-26T00:02:01;21.70;64.70
4904;DHT22;2467;48.142;11.616;2023-06-26T00:02:33;21.70;64.70
4904;DHT22;2467;48.142;11.616;2023-06-26T00:03:05;21.80;64.90
4904;DHT22;2467;48.142;11.616;2023-06-26T00:03:38;21.70;64.80
4904;DHT22;2467;48.142;11.616;2023-06-26T00:04:10;21.70;64.80
4904;DHT22;2467;48.142;11.616;2023-06-26T00:04:45;21.70;64.80
4904;DHT22;2467;48.142;11.616;2023-06-26T00:05:18;21.70;65.00
4904;DHT22;2467;48.142;11.616;2023-06-26T00:05:50;21.60;65.30
4904;DHT22;2467;48.142;11.616;2023-06-26T00:06:22;21.60;65.60
4904;DHT22;2467;48.142;11.616;2023-06-26T00:06:56;21.60;65.70
4904;DHT22;2467;48.142;11.616;2023-06-26T00:07:28;21.50;65.50
4904;DHT22;2467;48.142;11.616;2023-06-26T00:08:01;21.60;65.70
4904;DHT22;2467;48.142;11.616;2023-06-26T00:08:33;21.60;65.70
4904;DHT22;2467;48.142;11.616;2023-06-26T00:09:05;21.50;65.50
4904;DHT22;2467;48.142;11.616;2023-06-26T00:09:38;21.60;65.40
4904;DHT22;2467;48.142;11.616;2023-06-26T00:10:10;21.60;65.20
4904;DHT22;2467;48.142;11.616;2023-06-26T00:10:42;21.60;65.10
4904;DHT22;2467;48.142;11.616;2023-06-26T00:11:14;21.60;65.20
4904;DHT22;2467;48.142;11.616;2023-06-26T00:11:47;21.50;65.20
4904;DHT22;2467;48.142;11.616;2023-06-26T00:12:19;21.50;65.20
4904;DHT22;2467;48.142;11.616;2023-06-26T00:12:52;21.50;65.20
4904;DHT22;2467;48.142;11.616;2023-06-26T00:13:25;21.50;65.10
4904;DHT22;2467;48.142;11.616;2023-06-26T00:13:57;21.50;65.00
4904;DHT22;2467;48.142;11.616;2023-06-26T00:14:29;21.50;64.90
4904;DHT22;2467;48.142;11.616;2023-06-26T00:15:01;21.50;64.90
4904;DHT22;2467;48.142;11.616;2023-06-26T00:15:34;21.50;65.10
4904;DHT22;2467;48.142;11.616;2023-06-26T00:16:06;21.50;65.40
4904;DHT22;2467;48.142;11.616;2023-06-26T00:16:38;21.50;65.50
4904;DHT22;2467;48.142;11.616;2023-06-26T00:17:11;21.50;65.30
4904;DHT22;2467;48.142;11.616;2023-06-26T00:17:43;21.50;65.20
4904;DHT22;2467;48.142;11.616;2023-06-26T00:18:16;21.50;65.00
4904;DHT22;2467;48.142;11.616;2023-06-26T00:18:49;21.50;64.90
4904;DHT22;2467;48.142;11.616;2023-06-26T00:19:21;21.50;65.60
4904;DHT22;2467;48.142;11.616;2023-06-26T00:19:53;21.50;64.90
4904;DHT22;2467;48.142;11.616;2023-06-26T00:20:26;21.50;64.80
4904;DHT22;2467;48.142;11.616;2023-06-26T00:20:58;21.50;64.80
4904;DHT22;2467;48.142;11.616;2023-06-26T00:21:30;21.50;64.70
4904;DHT22;2467;48.142;11.616;2023-06-26T00:22:03;21.50;64.60
4904;DHT22;2467;48.142;11.616;2023-06-26T00:22:35;21.50;64.50
4904;DHT22;2467;48.142;11.616;2023-06-26T00:23:07;21.50;64.50
4904;DHT22;2467;48.142;11.616;2023-06-26T00:23:40;21.50;64.50
4904;DHT22;2467;48.142;11.616;2023-06-26T00:24:12;21.50;64.50
4904;DHT22;2467;48.142;11.616;2023-06-26T00:24:44;21.50;65.20
4904;DHT22;2467;48.142;11.616;2023-06-26T00:25:17;21.50;64.60
4904;DHT22;2467;48.142;11.616;2023-06-26T00:25:49;21.50;64.80
4904;DHT22;2467;48.142;11.616;2023-06-26T00:26:21;21.40;64.80
4904;DHT22;2467;48.142;11.616;2023-06-26T00:26:55;21.40;65.00
4904;DHT22;2467;48.142;11.616;2023-06-26T00:27:27;21.40;65.00
4904;DHT22;2467;48.142;11.616;2023-06-26T00:28:00;21.40;65.40
4904;DHT22;2467;48.142;11.616;2023-06-26T00:28:34;21.40;65.50
4904;DHT22;2467;48.142;11.616;2023-06-26T00:29:06;21.40;65.60
4904;DHT22;2467;48.142;11.616;2023-06-26T00:29:37;21.30;65.60
4904;DHT22;2467;48.142;11.616;2023-06-26T00:30:12;21.40;65.90
4904;DHT22;2467;48.142;11.616;2023-06-26T00:30:44;21.30;66.00
4904;DHT22;2467;48.142;11.616;2023-06-26T00:31:16;21.30;66.10
4904;DHT22;2467;48.142;11.616;2023-06-26T00:31:48;21.30;66.10
4904;DHT22;2467;48.142;11.616;2023-06-26T00:32:20;21.30;66.00
4904;DHT22;2467;48.142;11.616;2023-06-26T00:32:52;21.30;66.20
4904;DHT22;2467;48.142;11.616;2023-06-26T00:33:25;21.30;66.30
4904;DHT22;2467;48.142;11.616;2023-06-26T00:33:57;21.30;66.30
4904;DHT22;2467;48.142;11.616;2023-06-26T00:34:29;21.30;66.70
4904;DHT22;2467;48.142;11.616;2023-06-26T00:35:02;21.20;66.90
4904;DHT22;2467;48.142;11.616;2023-06-26T00:35:34;21.30;67.20
4904;DHT22;2467;48.142;11.616;2023-06-26T00:36:07;21.20;67.20
4904;DHT22;2467;48.142;11.616;2023-06-26T00:36:38;21.20;67.40
4904;DHT22;2467;48.142;11.616;2023-06-26T00:37:15;21.20;67.50
4904;DHT22;2467;48.142;11.616;2023-06-26T00:37:46;21.20;67.60
4904;DHT22;2467;48.142;11.616;2023-06-26T00:38:18;21.20;67.90
4904;DHT22;2467;48.142;11.616;2023-06-26T00:38:51;21.10;67.80
4904;DHT22;2467;48.142;11.616;2023-06-26T00:39:23;21.10;67.50
4904;DHT22;2467;48.142;11.616;2023-06-26T00:39:57;21.10;67.20
4904;DHT22;2467;48.142;11.616;2023-06-26T00:40:30;21.20;67.30
4904;DHT22;2467;48.142;11.616;2023-06-26T00:41:02;21.10;67.90
4904;DHT22;2467;48.142;11.616;2023-06-26T00:41:34;21.10;67.20
4904;DHT22;2467;48.142;11.616;2023-06-26T00:42:07;21.10;67.10
4904;DHT22;2467;48.142;11.616;2023-06-26T00:42:40;21.10;67.20
4904;DHT22;2467;48.142;11.616;2023-06-26T00:43:14;21.10;67.40
4904;DHT22;2467;48.142;11.616;2023-06-26T00:43:46;21.10;67.50
4904;DHT22;2467;48.142;11.616;2023-06-26T00:44:18;21.10;67.30
4904;DHT22;2467;48.142;11.616;2023-06-26T00:44:51;21.00;67.00
4904;DHT22;2467;48.142;11.616;2023-06-26T00:45:23;21.00;67.10
4904;DHT22;2467;48.142;11.616;2023-06-26T00:46:13;21.00;67.20
4904;DHT22;2467;48.142;11.616;2023-06-26T00:46:46;21.00;67.10
4904;DHT22;2467;48.142;11.616;2023-06-26T00:47:19;21.00;67.10
4904;DHT22;2467;48.142;11.616;2023-06-26T00:47:51;21.00;67.00
4904;DHT22;2467;48.142;11.616;2023-06-26T00:48:24;21.10;67.00
4904;DHT22;2467;48.142;11.616;2023-06-26T00:48:58;21.10;66.90
4904;DHT22;2467;48.142;11.616;2023-06-26T00:49:31;21.10;66.80
4904;DHT22;2467;48.142;11.616;2023-06-26T00:50:05;21.10;66.70
4904;DHT22;2467;48.142;11.616;2023-06-26T00:50:37;21.10;66.50
4904;DHT22;2467;48.142;11.616;2023-06-26T00:51:10;21.10;66.50
4904;DHT22;2467;48.142;11.616;2023-06-26T00:51:43;21.10;66.40
4904;DHT22;2467;48.142;11.616;2023-06-26T00:52:15;21.10;67.00
4904;DHT22;2467;48.142;11.616;2023-06-26T00:52:48;21.10;66.20
4904;DHT22;2467;48.142;11.616;2023-06-26T00:53:21;21.10;66.10
4904;DHT22;2467;48.142;11.616;2023-06-26T00:53:53;21.10;66.00
4904;DHT22;2467;48.142;11.616;2023-06-26T00:54:26;21.10;65.90
4904;DHT22;2467;48.142;11.616;2023-06-26T00:54:59;21.00;65.80
4904;DHT22;2467;48.142;11.616;2023-06-26T00:55:31;21.00;65.70
4904;DHT22;2467;48.142;11.616;2023-06-26T00:56:03;21.00;65.90
4904;DHT22;2467;48.142;11.616;2023-06-26T00:56:37;21.00;66.10
4904;DHT22;2467;48.142;11.616;2023-06-26T00:57:09;21.00;66.10
4904;DHT22;2467;48.142;11.616;2023-06-26T00:57:42;21.00;66.40
4904;DHT22;2467;48.142;11.616;2023-06-26T00:58:18;21.00;66.60
4904;DHT22;2467;48.142;11.616;2023-06-26T00:58:51;21.00;66.60
4904;DHT22;2467;48.142;11.616;2023-06-26T00:59:23;21.00;66.60
4904;DHT22;2467;48.142;11.616;2023-06-26T00:59:56;21.00;66.70
4904;DHT22;2467;48.142;11.616;2023-06-26T01:00:28;21.00;66.70
4904;DHT22;2467;48.142;11.616;2023-06-26T01:01:00;20.90;66.50
4904;DHT22;2467;48.142;11.616;2023-06-26T01:01:35;20.90;66.60
4904;DHT22;2467;48.142;11.616;2023-06-26T01:02:06;20.90;66.70
4904;DHT22;2467;48.142;11.616;2023-06-26T01:02:39;20.90;66.70
4904;DHT22;2467;48.142;11.616;2023-06-26T01:03:12;21.00;66.70
4904;DHT22;2467;48.142;11.616;2023-06-26T01:03:45;20.90;66.60
4904;DHT22;2467;48.142;11.616;2023-06-26T01:04:17;20.90;66.60
4904;DHT22;2467;48.142;11.616;2023-06-26T01:04:50;20.90;66.60
4904;DHT22;2467;48.142;11.616;2023-06-26T01:05:25;20.90;66.60
4904;DHT22;2467;48.142;11.616;2023-06-26T01:05:58;20.90;66.70
4904;DHT22;2467;48.142;11.616;2023-06-26T01:06:31;20.90;66.90
4904;DHT22;2467;48.142;11.616;2023-06-26T01:07:07;20.90;67.00
4904;DHT22;2467;48.142;11.616;2023-06-26T01:07:39;20.90;67.20
4904;DHT22;2467;48.142;11.616;2023-06-26T01:08:12;20.80;67.10
4904;DHT22;2467;48.142;11.616;2023-06-26T01:08:45;20.80;67.20
4904;DHT22;2467;48.142;11.616;2023-06-26T01:09:18;20.80;67.60
4904;DHT22;2467;48.142;11.616;2023-06-26T01:09:50;20.90;68.10
4904;DHT22;2467;48.142;11.616;2023-06-26T01:10:24;20.90;68.30
4904;DHT22;2467;48.142;11.616;2023-06-26T01:10:56;20.90;68.20
4904;DHT22;2467;48.142;11.616;2023-06-26T01:11:28;20.80;67.90
4904;DHT22;2467;48.142;11.616;2023-06-26T01:12:00;20.90;67.80
4904;DHT22;2467;48.142;11.616;2023-06-26T01:12:36;20.90;67.70
4904;DHT22;2467;48.142;11.616;2023-06-26T01:13:11;20.80;67.50
4904;DHT22;2467;48.142;11.616;2023-06-26T01:13:45;20.80;67.30
4904;DHT22;2467;48.142;11.616;2023-06-26T01:14:18;20.80;67.10
4904;DHT22;2467;48.142;11.616;2023-06-26T01:14:50;20.80;66.90
4904;DHT22;2467;48.142;11.616;2023-06-26T01:15:22;20.90;66.70
4904;DHT22;2467;48.142;11.616;2023-06-26T01:15:56;20.80;66.70
4904;DHT22;2467;48.142;11.616;2023-06-26T01:16:29;20.80;66.80
4904;DHT22;2467;48.142;11.616;2023-06-26T01:17:02;20.80;66.80
4904;DHT22;2467;48.142;11.616;2023-06-26T01:17:37;20.80;66.90
4904;DHT22;2467;48.142;11.616;2023-06-26T01:18:09;20.80;66.30
4904;DHT22;2467;48.142;11.616;2023-06-26T01:18:42;20.80;66.20
4904;DHT22;2467;48.142;11.616;2023-06-26T01:19:19;20.70;66.10
4904;DHT22;2467;48.142;11.616;2023-06-26T01:19:57;20.70;66.00
4904;DHT22;2467;48.142;11.616;2023-06-26T01:20:30;20.70;66.00
4904;DHT22;2467;48.142;11.616;2023-06-26T01:21:03;20.70;66.00
4904;DHT22;2467;48.142;11.616;2023-06-26T01:21:40;20.70;66.00
4904;DHT22;2467;48.142;11.616;2023-06-26T01:22:20;20.70;66.10
4904;DHT22;2467;48.142;11.616;2023-06-26T01:23:03;20.70;66.10
4904;DHT22;2467;48.142;11.616;2023-06-26T01:23:38;20.70;66.10
4904;DHT22;2467;48.142;11.616;2023-06-26T01:24:16;20.70;66.20
4904;DHT22;2467;48.142;11.616;2023-06-26T01:25:03;20.70;66.40
4904;DHT22;2467;48.142;11.616;2023-06-26T01:25:44;20.70;66.70
4904;DHT22;2467;48.142;11.616;2023-06-26T01:26:27;20.70;66.70
4904;DHT22;2467;48.142;11.616;2023-06-26T01:27:01;20.60;67.00
4904;DHT22;2467;48.142;11.616;2023-06-26T01:27:35;20.60;67.30
4904;DHT22;2467;48.142;11.616;2023-06-26T01:28:23;20.60;67.40
4904;DHT22;2467;48.142;11.616;2023-06-26T01:28:56;20.60;68.30
4904;DHT22;2467;48.142;11.616;2023-06-26T01:29:32;20.60;67.80
4904;DHT22;2467;48.142;11.616;2023-06-26T01:30:06;20.60;67.80
4904;DHT22;2467;48.142;11.616;2023-06-26T01:30:42;20.60;67.80
4904;DHT22;2467;48.142;11.616;2023-06-26T01:31:31;20.60;67.90
4904;DHT22;2467;48.142;11.616;2023-06-26T01:32:03;20.60;68.00
4904;DHT22;2467;48.142;11.616;2023-06-26T01:32:37;20.60;68.10
4904;DHT22;2467;48.142;11.616;2023-06-26T01:33:11;20.60;68.10
4904;DHT22;2467;48.142;11.616;2023-06-26T01:33:43;20.60;68.40
4904;DHT22;2467;48.142;11.616;2023-06-26T01:34:17;20.60;68.50
4904;DHT22;2467;48.142;11.616;2023-06-26T01:34:49;20.50;68.50
4904;DHT22;2467;48.142;11.616;2023-06-26T01:35:22;20.60;68.40
4904;DHT22;2467;48.142;11.616;2023-06-26T01:35:55;20.60;68.30
4904;DHT22;2467;48.142;11.616;2023-06-26T01:36:27;20.60;68.40
4904;DHT22;2467;48.142;11.616;2023-06-26T01:36:59;20.60;68.40
4904;DHT22;2467;48.142;11.616;2023-06-26T01:37:32;20.60;68.60
4904;DHT22;2467;48.142;11.616;2023-06-26T01:38:14;20.60;68.60
4904;DHT22;2467;48.142;11.616;2023-06-26T01:38:47;20.60;68.50
4904;DHT22;2467;48.142;11.616;2023-06-26T01:39:19;20.60;69.30
4904;DHT22;2467;48.142;11.616;2023-06-26T01:39:51;20.50;68.70
4904;DHT22;2467;48.142;11.616;2023-06-26T01:40:23;20.60;69.00
4904;DHT22;2467;48.142;11.616;2023-06-26T01:40:56;20.50;69.10
4904;DHT22;2467;48.142;11.616;2023-06-26T01:41:30;20.50;69.10
4904;DHT22;2467;48.142;11.616;2023-06-26T01:42:02;20.60;68.90
4904;DHT22;2467;48.142;11.616;2023-06-26T01:42:35;20.60;68.90
4904;DHT22;2467;48.142;11.616;2023-06-26T01:43:12;20.50;68.60
4904;DHT22;2467;48.142;11.616;2023-06-26T01:44:01;20.50;68.50
4904;DHT22;2467;48.142;11.616;2023-06-26T01:44:37;20.50;68.60
4904;DHT22;2467;48.142;11.616;2023-06-26T01:45:19;20.50;68.50
4904;DHT22;2467;48.142;11.616;2023-06-26T01:45:59;20.50;68.20
4904;DHT22;2467;48.142;11.616;2023-06-26T01:46:38;20.50;68.30
4904;DHT22;2467;48.142;11.616;2023-06-26T01:47:13;20.40;68.20
4904;DHT22;2467;48.142;11.616;2023-06-26T01:47:50;20.40;68.20
4904;DHT22;2467;48.142;11.616;2023-06-26T01:48:27;20.40;68.30
4904;DHT22;2467;48.142;11.616;2023-06-26T01:49:07;20.40;68.20
4904;DHT22;2467;48.142;11.616;2023-06-26T01:49:46;20.40;68.00
4904;DHT22;2467;48.142;11.616;2023-06-26T01:50:22;20.40;67.80
4904;DHT22;2467;48.142;11.616;2023-06-26T01:50:56;20.40;67.80
4904;DHT22;2467;48.142;11.616;2023-06-26T01:51:32;20.40;68.00
4904;DHT22;2467;48.142;11.616;2023-06-26T01:52:12;20.40;68.20
4904;DHT22;2467;48.142;11.616;2023-06-26T01:52:53;20.40;68.00
4904;DHT22;2467;48.142;11.616;2023-06-26T01:53:35;20.40;67.90
4904;DHT22;2467;48.142;11.616;2023-06-26T01:54:09;20.40;67.80
4904;DHT22;2467;48.142;11.616;2023-06-26T01:54:46;20.40;67.80
4904;DHT22;2467;48.142;11.616;2023-06-26T01:55:26;20.30;67.60
4904;DHT22;2467;48.142;11.616;2023-06-26T01:56:02;20.30;67.70
4904;DHT22;2467;48.142;11.616;2023-06-26T01:56:38;20.30;67.70
4904;DHT22;2467;48.142;11.616;2023-06-26T01:57:13;20.30;67.70
4904;DHT22;2467;48.142;11.616;2023-06-26T01:57:45;20.30;67.80
4904;DHT22;2467;48.142;11.616;2023-06-26T01:58:20;20.30;67.70
4904;DHT22;2467;48.142;11.616;2023-06-26T01:58:55;20.30;67.70
4904;DHT22;2467;48.142;11.616;2023-06-26T01:59:29;20.40;67.70
4904;DHT22;2467;48.142;11.616;2023-06-26T02:00:04;20.30;67.80
4904;DHT22;2467;48.142;11.616;2023-06-26T02:00:38;20.30;68.00
4904;DHT22;2467;48.142;11.616;2023-06-26T02:01:10;20.30;68.10
4904;DHT22;2467;48.142;11.616;2023-06-26T02:01:43;20.30;68.20
4904;DHT22;2467;48.142;11.616;2023-06-26T02:02:15;20.30;68.30
4904;DHT22;2467;48.142;11.616;2023-06-26T02:02:47;20.30;68.30
4904;DHT22;2467;48.142;11.616;2023-06-26T02:03:19;20.40;68.20
4904;DHT22;2467;48.142;11.616;2023-06-26T02:03:55;20.40;68.10
4904;DHT22;2467;48.142;11.616;2023-06-26T02:04:27;20.40;68.00
4904;DHT22;2467;48.142;11.616;2023-06-26T02:05:00;20.40;67.90
4904;DHT22;2467;48.142;11.616;2023-06-26T02:05:32;20.40;67.90
4904;DHT22;2467;48.142;11.616;2023-06-26T02:06:04;20.40;67.90
4904;DHT22;2467;48.142;11.616;2023-06-26T02:06:36;20.30;68.00
4904;DHT22;2467;48.142;11.616;2023-06-26T02:07:09;20.30;68.10
4904;DHT22;2467;48.142;11.616;2023-06-26T02:07:41;20.30;68.20
4904;DHT22;2467;48.142;11.616;2023-06-26T02:08:14;20.40;68.20
4904;DHT22;2467;48.142;11.616;2023-06-26T02:08:47;20.40;68.20
4904;DHT22;2467;48.142;11.616;2023-06-26T02:09:19;20.40;68.20
4904;DHT22;2467;48.142;11.616;2023-06-26T02:09:51;20.30;68.10
4904;DHT22;2467;48.142;11.616;2023-06-26T02:10:24;20.40;68.40
4904;DHT22;2467;48.142;11.616;2023-06-26T02:10:56;20.40;68.30
4904;DHT22;2467;48.142;11.616;2023-06-26T02:11:28;20.40;68.20
4904;DHT22;2467;48.142;11.616;2023-06-26T02:12:02;20.40;68.20
4904;DHT22;2467;48.142;11.616;2023-06-26T02:12:34;20.40;68.20
4904;DHT22;2467;48.142;11.616;2023-06-26T02:13:07;20.40;68.20
4904;DHT22;2467;48.142;11.616;2023-06-26T02:13:40;20.30;68.10
4904;DHT22;2467;48.142;11.616;2023-06-26T02:14:12;20.30;68.10
4904;DHT22;2467;48.142;11.616;2023-06-26T02:14:44;20.30;68.30
4904;DHT22;2467;48.142;11.616;2023-06-26T02:15:16;20.30;68.40
4904;DHT22;2467;48.142;11.616;2023-06-26T02:15:48;20.30;68.50
4904;DHT22;2467;48.142;11.616;2023-06-26T02:16:20;20.30;68.70
4904;DHT22;2467;48.142;11.616;2023-06-26T02:16:53;20.30;68.80
4904;DHT22;2467;48.142;11.616;2023-06-26T02:17:25;20.20;68.80
4904;DHT22;2467;48.142;11.616;2023-06-26T02:17:57;20.30;69.00
4904;DHT22;2467;48.142;11.616;2023-06-26T02:18:30;20.30;69.20
4904;DHT22;2467;48.142;11.616;2023-06-26T02:19:02;20.30;69.20
4904;DHT22;2467;48.142;11.616;2023-06-26T02:19:34;20.20;69.20
4904;DHT22;2467;48.142;11.616;2023-06-26T02:20:07;20.20;69.40
4904;DHT22;2467;48.142;11.616;2023-06-26T02:20:41;20.20;69.60
4904;DHT22;2467;48.142;11.616;2023-06-26T02:21:13;20.20;69.80
4904;DHT22;2467;48.142;11.616;2023-06-26T02:21:46;20.20;70.10
4904;DHT22;2467;48.142;11.616;2023-06-26T02:22:18;20.20;70.50
4904;DHT22;2467;48.142;11.616;2023-06-26T02:22:50;20.10;70.30
4904;DHT22;2467;48.142;11.616;2023-06-26T02:23:23;20.10;70.30
4904;DHT22;2467;48.142;11.616;2023-06-26T02:23:55;20.10;70.30
4904;DHT22;2467;48.142;11.616;2023-06-26T02:24:26;20.10;70.30
4904;DHT22;2467;48.142;11.616;2023-06-26T02:25:01;20.10;70.30
4904;DHT22;2467;48.142;11.616;2023-06-26T02:25:34;20.10;70.40
4904;DHT22;2467;48.142;11.616;2023-06-26T02:26:06;20.10;70.40
4904;DHT22;2467;48.142;11.616;2023-06-26T02:26:38;20.10;70.40
4904;DHT22;2467;48.142;11.616;2023-06-26T02:27:12;20.10;70.40
4904;DHT22;2467;48.142;11.616;2023-06-26T02:27:44;20.10;70.40
4904;DHT22;2467;48.142;11.616;2023-06-26T02:28:16;20.10;70.40
4904;DHT22;2467;48.142;11.616;2023-06-26T02:28:49;20.10;70.40
4904;DHT22;2467;48.142;11.616;2023-06-26T02:29:21;20.10;70.30
4904;DHT22;2467;48.142;11.616;2023-06-26T02:29:53;20.10;70.20
4904;DHT22;2467;48.142;11.616;2023-06-26T02:30:24;20.20;70.30
4904;DHT22;2467;48.142;11.616;2023-06-26T02:30:57;20.10;70.00
4904;DHT22;2467;48.142;11.616;2023-06-26T02:31:29;20.20;70.00
4904;DHT22;2467;48.142;11.616;2023-06-26T02:32:01;20.10;69.80
4904;DHT22;2467;48.142;11.616;2023-06-26T02:32:34;20.20;69.90
4904;DHT22;2467;48.142;11.616;2023-06-26T02:33:06;20.20;69.90
4904;DHT22;2467;48.142;11.616;2023-06-26T02:33:38;20.20;69.70
4904;DHT22;2467;48.142;11.616;2023-06-26T02:34:11;20.20;69.70
4904;DHT22;2467;48.142;11.616;2023-06-26T02:34:43;20.20;69.60
4904;DHT22;2467;48.142;11.616;2023-06-26T02:35:15;20.20;69.60
4904;DHT22;2467;48.142;11.616;2023-06-26T02:35:48;20.20;69.80
4904;DHT22;2467;48.142;11.616;2023-06-26T02:36:21;20.20;69.90
4904;DHT22;2467;48.142;11.616;2023-06-26T02:36:53;20.20;70.00
4904;DHT22;2467;48.142;11.616;2023-06-26T02:37:26;20.20;70.00
4904;DHT22;2467;48.142;11.616;2023-06-26T02:37:58;20.20;70.10
4904;DHT22;2467;48.142;11.616;2023-06-26T02:38:30;20.10;70.10
4904;DHT22;2467;48.142;11.616;2023-06-26T02:39:03;20.10;70.20
4904;DHT22;2467;48.142;11.616;2023-06-26T02:39:35;20.10;70.40
4904;DHT22;2467;48.142;11.616;2023-06-26T02:40:07;20.10;70.50
4904;DHT22;2467;48.142;11.616;2023-06-26T02:40:41;20.10;70.60
4904;DHT22;2467;48.142;11.616;2023-06-26T02:41:13;20.10;70.60
4904;DHT22;2467;48.142;11.616;2023-06-26T02:41:45;20.10;70.60
4904;DHT22;2467;48.142;11.616;2023-06-26T02:42:19;20.10;70.60
4904;DHT22;2467;48.142;11.616;2023-06-26T02:42:51;20.10;70.60
4904;DHT22;2467;48.142;11.616;2023-06-26T02:43:22;20.10;70.70
4904;DHT22;2467;48.142;11.616;2023-06-26T02:43:55;20.10;70.70
4904;DHT22;2467;48.142;11.616;2023-06-26T02:44:27;20.10;70.80
4904;DHT22;2467;48.142;11.616;2023-06-26T02:45:00;20.10;70.90
4904;DHT22;2467;48.142;11.616;2023-06-26T02:45:32;20.10;71.00
4904;DHT22;2467;48.142;11.616;2023-06-26T02:46:04;20.10;70.90
4904;DHT22;2467;48.142;11.616;2023-06-26T02:46:37;20.00;70.90
4904;DHT22;2467;48.142;11.616;2023-06-26T02:47:09;20.00;71.10
4904;DHT22;2467;48.142;11.616;2023-06-26T02:47:41;20.00;71.10
4904;DHT22;2467;48.142;11.616;2023-06-26T02:48:14;20.00;71.30
4904;DHT22;2467;48.142;11.616;2023-06-26T02:48:46;20.00;71.30
4904;DHT22;2467;48.142;11.616;2023-06-26T02:49:18;20.00;71.30
4904;DHT22;2467;48.142;11.616;2023-06-26T02:49:54;20.00;71.30
4904;DHT22;2467;48.142;11.616;2023-06-26T02:50:25;20.00;71.30
4904;DHT22;2467;48.142;11.616;2023-06-26T02:50:58;20.00;71.30
4904;DHT22;2467;48.142;11.616;2023-06-26T02:51:32;20.00;71.40
4904;DHT22;2467;48.142;11.616;2023-06-26T02:52:04;20.00;71.40
4904;DHT22;2467;48.142;11.616;2023-06-26T02:52:36;20.00;71.50
4904;DHT22;2467;48.142;11.616;2023-06-26T02:53:09;20.00;71.60
4904;DHT22;2467;48.142;11.616;2023-06-26T02:53:41;20.00;71.60
4904;DHT22;2467;48.142;11.616;2023-06-26T02:54:13;20.00;71.60
4904;DHT22;2467;48.142;11.616;2023-06-26T02:54:45;20.00;71.70
4904;DHT22;2467;48.142;11.616;2023-06-26T02:55:17;20.00;71.70
4904;DHT22;2467;48.142;11.616;2023-06-26T02:55:52;19.90;71.70
4904;DHT22;2467;48.142;11.616;2023-06-26T02:56:25;20.00;71.90
4904;DHT22;2467;48.142;11.616;2023-06-26T02:57:00;19.90;72.00
4904;DHT22;2467;48.142;11.616;2023-06-26T02:57:33;20.00;72.30
4904;DHT22;2467;48.142;11.616;2023-06-26T02:58:06;19.90;72.30
4904;DHT22;2467;48.142;11.616;2023-06-26T02:58:38;19.90;72.40
4904;DHT22;2467;48.142;11.616;2023-06-26T02:59:10;19.90;72.40
4904;DHT22;2467;48.142;11.616;2023-06-26T02:59:43;20.00;72.50
4904;DHT22;2467;48.142;11.616;2023-06-26T03:00:15;19.90;72.60
4904;DHT22;2467;48.142;11.616;2023-06-26T03:00:47;19.90;72.70
4904;DHT22;2467;48.142;11.616;2023-06-26T03:01:20;19.90;72.80
4904;DHT22;2467;48.142;11.616;2023-06-26T03:01:52;19.90;72.80
4904;DHT22;2467;48.142;11.616;2023-06-26T03:02:24;19.90;72.80
4904;DHT22;2467;48.142;11.616;2023-06-26T03:02:57;19.90;72.60
4904;DHT22;2467;48.142;11.616;2023-06-26T03:03:29;19.90;72.60
4904;DHT22;2467;48.142;11.616;2023-06-26T03:04:02;20.00;72.60
4904;DHT22;2467;48.142;11.616;2023-06-26T03:04:35;20.00;72.70
4904;DHT22;2467;48.142;11.616;2023-06-26T03:05:08;20.00;73.30
4904;DHT22;2467;48.142;11.616;2023-06-26T03:05:40;20.00;72.60
4904;DHT22;2467;48.142;11.616;2023-06-26T03:06:13;20.00;72.60
4904;DHT22;2467;48.142;11.616;2023-06-26T03:06:45;20.00;72.60
4904;DHT22;2467;48.142;11.616;2023-06-26T03:07:18;20.00;72.70
4904;DHT22;2467;48.142;11.616;2023-06-26T03:07:50;20.00;72.80
4904;DHT22;2467;48.142;11.616;2023-06-26T03:08:21;20.00;72.80
4904;DHT22;2467;48.142;11.616;2023-06-26T03:08:54;20.00;72.90
4904;DHT22;2467;48.142;11.616;2023-06-26T03:09:26;20.00;73.00
4904;DHT22;2467;48.142;11.616;2023-06-26T03:09:58;20.00;73.20
4904;DHT22;2467;48.142;11.616;2023-06-26T03:10:32;20.00;73.30
4904;DHT22;2467;48.142;11.616;2023-06-26T03:11:03;20.10;73.50
4904;DHT22;2467;48.142;11.616;2023-06-26T03:11:35;20.10;73.70
4904;DHT22;2467;48.142;11.616;2023-06-26T03:12:09;20.00;73.60
4904;DHT22;2467;48.142;11.616;2023-06-26T03:12:42;20.00;73.50
4904;DHT22;2467;48.142;11.616;2023-06-26T03:13:14;20.10;73.80
4904;DHT22;2467;48.142;11.616;2023-06-26T03:13:47;20.00;73.80
4904;DHT22;2467;48.142;11.616;2023-06-26T03:14:19;20.00;74.00
4904;DHT22;2467;48.142;11.616;2023-06-26T03:14:51;20.00;74.00
4904;DHT22;2467;48.142;11.616;2023-06-26T03:15:24;20.00;74.10
4904;DHT22;2467;48.142;11.616;2023-06-26T03:15:56;20.00;74.20
4904;DHT22;2467;48.142;11.616;2023-06-26T03:16:28;20.00;74.30
4904;DHT22;2467;48.142;11.616;2023-06-26T03:17:00;20.00;74.50
4904;DHT22;2467;48.142;11.616;2023-06-26T03:17:35;20.00;74.60
4904;DHT22;2467;48.142;11.616;2023-06-26T03:18:07;20.00;74.70
4904;DHT22;2467;48.142;11.616;2023-06-26T03:18:41;20.00;74.90
4904;DHT22;2467;48.142;11.616;2023-06-26T03:19:13;19.90;75.10
4904;DHT22;2467;48.142;11.616;2023-06-26T03:19:45;19.90;75.20
4904;DHT22;2467;48.142;11.616;2023-06-26T03:20:17;19.90;75.30
4904;DHT22;2467;48.142;11.616;2023-06-26T03:20:49;19.90;75.50
4904;DHT22;2467;48.142;11.616;2023-06-26T03:21:21;19.90;75.70
4904;DHT22;2467;48.142;11.616;2023-06-26T03:21:54;19.90;75.90
4904;DHT22;2467;48.142;11.616;2023-06-26T03:22:26;19.90;76.00
4904;DHT22;2467;48.142;11.616;2023-06-26T03:22:58;19.90;76.30
4904;DHT22;2467;48.142;11.616;2023-06-26T03:23:30;19.90;76.50
4904;DHT22;2467;48.142;11.616;2023-06-26T03:24:03;19.90;76.60
4904;DHT22;2467;48.142;11.616;2023-06-26T03:24:35;19.90;76.80
4904;DHT22;2467;48.142;11.616;2023-06-26T03:25:07;19.90;76.70
4904;DHT22;2467;48.142;11.616;2023-06-26T03:25:40;19.90;76.80
4904;DHT22;2467;48.142;11.616;2023-06-26T03:26:12;19.80;76.70
4904;DHT22;2467;48.142;11.616;2023-06-26T03:26:46;19.80;76.80
4904;DHT22;2467;48.142;11.616;2023-06-26T03:27:19;19.80;77.00
4904;DHT22;2467;48.142;11.616;2023-06-26T03:27:52;19.80;77.20
4904;DHT22;2467;48.142;11.616;2023-06-26T03:28:24;19.80;77.30
4904;DHT22;2467;48.142;11.616;2023-06-26T03:28:57;19.80;77.40
4904;DHT22;2467;48.142;11.616;2023-06-26T03:29:28;19.80;77.30
4904;DHT22;2467;48.142;11.616;2023-06-26T03:30:01;19.80;77.20
4904;DHT22;2467;48.142;11.616;2023-06-26T03:30:34;19.80;77.30
4904;DHT22;2467;48.142;11.616;2023-06-26T03:31:06;19.70;77.20
4904;DHT22;2467;48.142;11.616;2023-06-26T03:31:38;19.80;77.40
4904;DHT22;2467;48.142;11.616;2023-06-26T03:32:11;19.70;77.80
4904;DHT22;2467;48.142;11.616;2023-06-26T03:32:43;19.70;77.80
4904;DHT22;2467;48.142;11.616;2023-06-26T03:33:15;19.70;78.00
4904;DHT22;2467;48.142;11.616;2023-06-26T03:33:47;19.70;78.20